createdAt,value
2018-05-14T00:00:22.087Z,60.8
2018-05-14T00:01:12.182Z,60.8
2018-05-14T00:02:01.970Z,60.8
2018-05-14T00:02:51.486Z,60.7
2018-05-14T00:03:42.160Z,60.7
2018-05-14T00:04:31.855Z,60.7
2018-05-14T00:05:22.222Z,60.7
2018-05-14T00:06:12.567Z,60.7
2018-05-14T00:07:02.314Z,60.7
2018-05-14T00:07:52.114Z,60.7
2018-05-14T00:08:42.195Z,60.7
2018-05-14T00:09:32.235Z,60.7
2018-05-14T00:10:23.037Z,60.6
2018-05-14T00:11:12.652Z,60.6
2018-05-14T00:12:02.682Z,60.6
2018-05-14T00:12:52.784Z,60.6
2018-05-14T00:13:43.109Z,60.6
2018-05-14T00:14:33.168Z,60.6
2018-05-14T00:15:21.881Z,60.6
2018-05-14T00:16:13.278Z,60.6
2018-05-14T00:17:03.060Z,60.6
2018-05-14T00:17:53.424Z,60.6
2018-05-14T00:18:43.473Z,60.6
2018-05-14T00:19:33.533Z,60.6
2018-05-14T00:20:23.618Z,60.6
2018-05-14T00:21:13.668Z,60.6
2018-05-14T00:22:03.457Z,60.5
2018-05-14T00:22:53.291Z,60.5
2018-05-14T00:23:42.733Z,60.5
2018-05-14T00:24:33.740Z,60.5
2018-05-14T00:25:23.450Z,60.5
2018-05-14T00:26:14.060Z,60.5
2018-05-14T00:27:03.830Z,60.5
2018-05-14T00:27:53.877Z,60.5
2018-05-14T00:28:43.950Z,60.5
2018-05-14T00:29:34.305Z,60.5
2018-05-14T00:30:24.347Z,60.5
2018-05-14T00:31:14.143Z,60.4
2018-05-14T00:32:04.525Z,60.4
2018-05-14T00:32:54.527Z,60.4
2018-05-14T00:33:44.362Z,60.4
2018-05-14T00:34:34.164Z,60.4
2018-05-14T00:35:24.753Z,60.4
2018-05-14T00:36:14.492Z,60.4
2018-05-14T00:37:04.393Z,60.4
2018-05-14T00:37:54.895Z,60.4
2018-05-14T00:38:45.010Z,60.4
2018-05-14T00:39:35.034Z,60.4
2018-05-14T00:40:24.827Z,60.4
2018-05-14T00:41:15.212Z,60.4
2018-05-14T00:42:05.237Z,60.3
2018-05-14T00:42:54.539Z,60.3
2018-05-14T00:43:44.797Z,60.3
2018-05-14T00:44:35.418Z,60.3
2018-05-14T00:45:25.507Z,60.3
2018-05-14T00:46:15.564Z,60.3
2018-05-14T00:47:05.332Z,60.3
2018-05-14T00:47:55.381Z,60.3
2018-05-14T00:48:45.742Z,60.3
2018-05-14T00:49:36.643Z,60.3
2018-05-14T00:50:25.867Z,60.3
2018-05-14T00:51:15.926Z,60.3
2018-05-14T00:52:05.701Z,60.3
2018-05-14T00:52:55.791Z,60.3
2018-05-14T00:53:45.833Z,60.3
2018-05-14T00:54:35.881Z,60.3
2018-05-14T00:55:25.959Z,60.3
2018-05-14T00:56:16.006Z,60.3
2018-05-14T00:57:06.353Z,60.3
2018-05-14T00:57:56.426Z,60.2
2018-05-14T00:58:45.635Z,60.2
2018-05-14T00:59:36.518Z,60.2
2018-05-14T01:00:26.385Z,60.2
2018-05-14T01:01:16.658Z,60.2
2018-05-14T01:02:06.748Z,60.2
2018-05-14T01:02:56.812Z,60.2
2018-05-14T01:03:46.583Z,60.1
2018-05-14T01:04:36.963Z,60.2
2018-05-14T01:05:26.983Z,60.1
2018-05-14T01:06:16.748Z,60.1
2018-05-14T01:07:07.119Z,60.1
2018-05-14T01:07:57.180Z,60.1
2018-05-14T01:08:47.228Z,60.1
2018-05-14T01:09:37.027Z,60.1
2018-05-14T01:10:27.069Z,60.1
2018-05-14T01:11:17.415Z,60.1
2018-05-14T01:12:07.502Z,60.1
2018-05-14T01:12:57.262Z,60.1
2018-05-14T01:13:47.038Z,60.1
2018-05-14T01:14:37.677Z,60.1
2018-05-14T01:15:27.444Z,60.1
2018-05-14T01:16:17.792Z,60.1
2018-05-14T01:17:07.040Z,60.1
2018-05-14T01:17:57.667Z,60.1
2018-05-14T01:18:48.071Z,60
2018-05-14T01:19:37.498Z,60
2018-05-14T01:20:28.094Z,60
2018-05-14T01:21:18.179Z,60
2018-05-14T01:22:07.721Z,60
2018-05-14T01:22:58.282Z,60
2018-05-14T01:23:48.197Z,60
2018-05-14T01:24:38.504Z,59.9
2018-05-14T01:25:27.921Z,59.9
2018-05-14T01:26:18.571Z,59.9
2018-05-14T01:27:07.518Z,59.9
2018-05-14T01:27:58.681Z,59.9
2018-05-14T01:28:48.559Z,59.9
2018-05-14T01:29:38.241Z,59.9
2018-05-14T01:30:28.304Z,59.9
2018-05-14T01:31:18.929Z,59.9
2018-05-14T01:32:08.459Z,59.9
2018-05-14T01:32:59.142Z,59.9
2018-05-14T01:33:48.577Z,59.9
2018-05-14T01:34:39.232Z,59.9
2018-05-14T01:35:28.983Z,59.9
2018-05-14T01:36:19.127Z,59.9
2018-05-14T01:37:08.824Z,59.9
2018-05-14T01:37:59.140Z,59.9
2018-05-14T01:38:49.484Z,59.8
2018-05-14T01:39:39.548Z,59.9
2018-05-14T01:40:29.063Z,59.8
2018-05-14T01:41:19.722Z,59.8
2018-05-14T01:42:09.746Z,59.8
2018-05-14T01:42:59.799Z,59.8
2018-05-14T01:43:49.703Z,59.8
2018-05-14T01:44:40.018Z,59.8
2018-05-14T01:45:29.999Z,59.8
2018-05-14T01:46:20.092Z,59.8
2018-05-14T01:47:09.570Z,59.8
2018-05-14T01:47:59.665Z,59.8
2018-05-14T01:48:49.986Z,59.8
2018-05-14T01:49:40.350Z,59.8
2018-05-14T01:50:30.388Z,59.8
2018-05-14T01:51:19.901Z,59.8
2018-05-14T01:52:09.940Z,59.8
2018-05-14T01:53:00.323Z,59.8
2018-05-14T01:53:50.339Z,59.7
2018-05-14T01:54:40.206Z,59.7
2018-05-14T01:55:30.737Z,59.7
2018-05-14T01:56:20.820Z,59.7
2018-05-14T01:57:10.847Z,59.7
2018-05-14T01:58:00.118Z,59.7
2018-05-14T01:58:51.000Z,59.7
2018-05-14T01:59:41.104Z,59.6
2018-05-14T02:00:31.160Z,59.6
2018-05-14T02:01:20.619Z,59.6
2018-05-14T02:02:10.949Z,59.6
2018-05-14T02:03:01.285Z,59.6
2018-05-14T02:03:51.124Z,59.6
2018-05-14T02:04:40.849Z,59.6
2018-05-14T02:05:31.207Z,59.6
2018-05-14T02:06:21.550Z,59.6
2018-05-14T02:07:11.339Z,59.6
2018-05-14T02:08:01.369Z,59.6
2018-05-14T02:08:51.456Z,59.6
2018-05-14T02:09:41.514Z,59.6
2018-05-14T02:10:31.870Z,59.6
2018-05-14T02:11:21.662Z,59.6
2018-05-14T02:12:12.011Z,59.6
2018-05-14T02:13:02.058Z,59.6
2018-05-14T02:13:51.846Z,59.6
2018-05-14T02:14:41.937Z,59.5
2018-05-14T02:15:31.992Z,59.5
2018-05-14T02:16:22.034Z,59.5
2018-05-14T02:17:12.393Z,59.5
2018-05-14T02:18:02.428Z,59.5
2018-05-14T02:18:52.490Z,59.5
2018-05-14T02:19:42.258Z,59.5
2018-05-14T02:20:32.623Z,59.5
2018-05-14T02:21:22.752Z,59.4
2018-05-14T02:22:12.743Z,59.4
2018-05-14T02:23:02.240Z,59.4
2018-05-14T02:23:52.650Z,59.4
2018-05-14T02:24:42.670Z,59.4
2018-05-14T02:25:32.629Z,59.4
2018-05-14T02:26:22.780Z,59.4
2018-05-14T02:27:12.620Z,59.4
2018-05-14T02:28:03.215Z,59.4
2018-05-14T02:28:53.331Z,59.4
2018-05-14T02:29:42.770Z,59.4
2018-05-14T02:30:32.825Z,59.4
2018-05-14T02:31:23.482Z,59.4
2018-05-14T02:32:13.511Z,59.4
2018-05-14T02:33:03.030Z,59.4
2018-05-14T02:33:53.347Z,59.4
2018-05-14T02:34:43.158Z,59.4
2018-05-14T02:35:33.727Z,59.3
2018-05-14T02:36:23.558Z,59.3
2018-05-14T02:37:13.720Z,59.3
2018-05-14T02:38:03.967Z,59.3
2018-05-14T02:38:53.431Z,59.3
2018-05-14T02:39:43.485Z,59.3
2018-05-14T02:40:33.880Z,59.3
2018-05-14T02:41:23.684Z,59.3
2018-05-14T02:42:13.742Z,59.3
2018-05-14T02:43:04.117Z,59.3
2018-05-14T02:43:54.414Z,59.3
2018-05-14T02:44:44.432Z,59.3
2018-05-14T02:45:34.527Z,59.3
2018-05-14T02:46:24.281Z,59.3
2018-05-14T02:47:14.052Z,59.3
2018-05-14T02:48:04.434Z,59.3
2018-05-14T02:48:53.932Z,59.3
2018-05-14T02:49:44.831Z,59.3
2018-05-14T02:50:34.438Z,59.2
2018-05-14T02:51:24.932Z,59.2
2018-05-14T02:52:14.746Z,59.2
2018-05-14T02:53:05.076Z,59.2
2018-05-14T02:53:55.139Z,59.2
2018-05-14T02:54:44.731Z,59.2
2018-05-14T02:55:35.318Z,59.2
2018-05-14T02:56:25.343Z,59.2
2018-05-14T02:57:15.123Z,59.1
2018-05-14T02:58:05.431Z,59.1
2018-05-14T02:58:55.595Z,59.1
2018-05-14T02:59:45.578Z,59.1
2018-05-14T03:00:35.651Z,59.1
2018-05-14T03:01:25.711Z,59.1
2018-05-14T03:02:15.768Z,59.1
2018-05-14T03:03:05.268Z,59.1
2018-05-14T03:03:55.872Z,59.1
2018-05-14T03:04:45.241Z,59.1
2018-05-14T03:05:35.463Z,59.1
2018-05-14T03:06:26.093Z,59.1
2018-05-14T03:07:15.573Z,59.1
2018-05-14T03:08:05.653Z,59.1
2018-05-14T03:08:56.065Z,59.1
2018-05-14T03:09:46.053Z,59.1
2018-05-14T03:10:36.878Z,59.1
2018-05-14T03:11:26.448Z,59
2018-05-14T03:12:16.200Z,59
2018-05-14T03:13:06.037Z,59
2018-05-14T03:13:55.824Z,59
2018-05-14T03:14:46.680Z,59
2018-05-14T03:15:36.460Z,59
2018-05-14T03:16:26.820Z,59
2018-05-14T03:17:16.580Z,59
2018-05-14T03:18:06.680Z,58.9
2018-05-14T03:18:56.722Z,58.9
2018-05-14T03:19:46.777Z,58.9
2018-05-14T03:20:36.585Z,58.9
2018-05-14T03:21:27.164Z,58.9
2018-05-14T03:22:16.992Z,58.9
2018-05-14T03:23:07.289Z,58.9
2018-05-14T03:23:57.344Z,58.9
2018-05-14T03:24:47.132Z,58.9
2018-05-14T03:25:37.657Z,58.9
2018-05-14T03:26:27.546Z,58.9
2018-05-14T03:27:17.528Z,58.9
2018-05-14T03:28:07.391Z,58.9
2018-05-14T03:28:57.464Z,58.9
2018-05-14T03:29:47.816Z,58.9
2018-05-14T03:30:37.376Z,58.9
2018-05-14T03:31:27.960Z,58.8
2018-05-14T03:32:17.720Z,58.8
2018-05-14T03:33:08.066Z,58.8
2018-05-14T03:33:58.121Z,58.8
2018-05-14T03:34:48.199Z,58.8
2018-05-14T03:35:38.232Z,58.8
2018-05-14T03:36:28.310Z,58.8
2018-05-14T03:37:17.899Z,58.8
2018-05-14T03:38:08.178Z,58.8
2018-05-14T03:38:58.479Z,58.8
2018-05-14T03:39:48.556Z,58.8
2018-05-14T03:40:38.641Z,58.8
2018-05-14T03:41:28.401Z,58.8
2018-05-14T03:42:18.464Z,58.8
2018-05-14T03:43:08.788Z,58.8
2018-05-14T03:43:58.591Z,58.8
2018-05-14T03:44:48.908Z,58.7
2018-05-14T03:45:38.698Z,58.7
2018-05-14T03:46:29.058Z,58.7
2018-05-14T03:47:19.106Z,58.7
2018-05-14T03:48:08.353Z,58.7
2018-05-14T03:48:59.245Z,58.7
2018-05-14T03:49:49.113Z,58.7
2018-05-14T03:50:39.372Z,58.7
2018-05-14T03:51:29.450Z,58.7
2018-05-14T03:52:19.207Z,58.6
2018-05-14T03:53:09.542Z,58.6
2018-05-14T03:53:59.060Z,58.6
2018-05-14T03:54:49.423Z,58.6
2018-05-14T03:55:39.766Z,58.6
2018-05-14T03:56:29.304Z,58.6
2018-05-14T03:57:19.905Z,58.6
2018-05-14T03:59:49.528Z,58.6
2018-05-14T04:05:40.274Z,58.5
2018-05-14T04:08:10.484Z,58.5
2018-05-14T04:09:00.468Z,58.5
2018-05-14T04:09:50.808Z,58.5
2018-05-14T04:10:40.295Z,58.5
2018-05-14T04:11:30.665Z,58.4
2018-05-14T04:12:21.118Z,58.4
2018-05-14T04:13:11.054Z,58.4
2018-05-14T04:14:00.274Z,58.4
2018-05-14T04:14:50.927Z,58.4
2018-05-14T04:15:41.252Z,58.4
2018-05-14T04:16:31.509Z,58.4
2018-05-14T04:17:21.395Z,58.4
2018-05-14T04:18:11.457Z,58.4
2018-05-14T04:19:01.536Z,58.4
2018-05-14T04:19:51.302Z,58.4
2018-05-14T04:20:41.352Z,58.4
2018-05-14T04:21:31.171Z,58.4
2018-05-14T04:22:21.753Z,58.4
2018-05-14T04:23:11.291Z,58.4
2018-05-14T04:24:01.615Z,58.4
2018-05-14T04:24:51.960Z,58.4
2018-05-14T04:25:41.711Z,58.4
2018-05-14T04:26:31.800Z,58.3
2018-05-14T04:27:21.839Z,58.3
2018-05-14T04:28:11.892Z,58.3
2018-05-14T04:29:01.981Z,58.3
2018-05-14T04:29:52.039Z,58.3
2018-05-14T04:30:41.875Z,58.3
2018-05-14T04:31:31.357Z,58.3
2018-05-14T04:32:21.944Z,58.3
2018-05-14T04:33:12.015Z,58.3
2018-05-14T04:34:02.624Z,58.3
2018-05-14T04:34:51.601Z,58.3
2018-05-14T04:35:42.489Z,58.3
2018-05-14T04:36:32.542Z,58.3
2018-05-14T04:37:22.893Z,58.3
2018-05-14T04:38:12.389Z,58.3
2018-05-14T04:39:02.457Z,58.3
2018-05-14T04:39:53.168Z,58.2
2018-05-14T04:40:42.851Z,58.2
2018-05-14T04:41:33.197Z,58.2
2018-05-14T04:42:23.008Z,58.2
2018-05-14T04:43:13.291Z,58.2
2018-05-14T04:44:02.802Z,58.2
2018-05-14T04:44:53.434Z,58.1
2018-05-14T04:45:43.262Z,58.1
2018-05-14T04:46:33.264Z,58.1
2018-05-14T04:47:23.391Z,58.1
2018-05-14T04:48:13.127Z,58.1
2018-05-14T04:49:02.940Z,58.1
2018-05-14T04:49:53.561Z,58.1
2018-05-14T04:50:43.591Z,58.1
2018-05-14T04:51:33.158Z,58.1
2018-05-14T04:52:23.462Z,58.1
2018-05-14T04:53:13.819Z,58.1
2018-05-14T04:54:04.105Z,58.1
2018-05-14T04:54:53.946Z,58.1
2018-05-14T04:55:43.980Z,58.1
2018-05-14T04:56:34.331Z,58.1
2018-05-14T04:57:24.138Z,58.1
2018-05-14T04:58:14.240Z,58.1
2018-05-14T04:59:04.495Z,58
2018-05-14T04:59:54.558Z,58
2018-05-14T05:00:44.767Z,58.1
2018-05-14T05:01:33.609Z,58
2018-05-14T05:02:24.053Z,58
2018-05-14T05:03:14.268Z,58
2018-05-14T05:04:04.309Z,58
2018-05-14T05:04:55.003Z,57.9
2018-05-14T05:05:45.030Z,58
2018-05-14T05:06:34.519Z,57.9
2018-05-14T05:07:24.584Z,58
2018-05-14T05:08:14.639Z,58
2018-05-14T05:09:04.957Z,57.9
2018-05-14T05:09:54.761Z,57.9
2018-05-14T05:10:45.111Z,57.9
2018-05-14T05:11:36.032Z,57.9
2018-05-14T05:12:25.262Z,57.9
2018-05-14T05:13:15.032Z,57.9
2018-05-14T05:14:05.374Z,57.9
2018-05-14T05:14:55.429Z,57.9
2018-05-14T05:15:45.189Z,57.9
2018-05-14T05:16:35.562Z,57.9
2018-05-14T05:17:24.768Z,57.9
2018-05-14T05:18:15.702Z,57.9
2018-05-14T05:19:06.109Z,57.9
2018-05-14T05:19:55.787Z,57.9
2018-05-14T05:20:46.178Z,57.9
2018-05-14T05:21:34.876Z,57.9
2018-05-14T05:22:25.060Z,57.8
2018-05-14T05:23:16.387Z,57.8
2018-05-14T05:24:06.104Z,57.8
2018-05-14T05:24:55.905Z,57.8
2018-05-14T05:25:46.557Z,57.8
2018-05-14T05:26:36.299Z,57.8
2018-05-14T05:28:16.720Z,57.8
2018-05-14T05:34:57.165Z,57.7
2018-05-14T05:35:47.328Z,57.7
2018-05-14T05:36:37.039Z,57.7
2018-05-14T05:37:27.345Z,57.7
2018-05-14T05:38:17.141Z,57.7
2018-05-14T05:39:07.252Z,57.7
2018-05-14T05:39:57.291Z,57.6
2018-05-14T05:40:47.348Z,57.6
2018-05-14T05:41:37.121Z,57.6
2018-05-14T05:42:27.482Z,57.6
2018-05-14T05:43:17.515Z,57.6
2018-05-14T05:44:07.596Z,57.6
2018-05-14T05:44:57.673Z,57.6
2018-05-14T05:45:48.014Z,57.6
2018-05-14T05:46:37.754Z,57.6
2018-05-14T05:47:28.107Z,57.6
2018-05-14T05:48:17.600Z,57.6
2018-05-14T05:49:07.959Z,57.6
2018-05-14T05:49:57.780Z,57.6
2018-05-14T05:50:47.790Z,57.6
2018-05-14T05:51:37.864Z,57.6
2018-05-14T05:52:28.614Z,57.6
2018-05-14T05:53:18.261Z,57.6
2018-05-14T05:54:08.625Z,57.5
2018-05-14T05:54:58.411Z,57.5
2018-05-14T05:55:48.457Z,57.5
2018-05-14T05:56:38.270Z,57.5
2018-05-14T05:57:28.872Z,57.5
2018-05-14T05:58:18.408Z,57.5
2018-05-14T05:59:07.576Z,57.5
2018-05-14T05:59:58.500Z,57.5
2018-05-14T06:00:48.274Z,57.4
2018-05-14T06:01:39.269Z,57.4
2018-05-14T06:02:28.664Z,57.4
2018-05-14T06:03:18.474Z,57.4
2018-05-14T06:04:09.112Z,57.4
2018-05-14T06:04:59.144Z,57.4
2018-05-14T06:05:49.498Z,57.4
2018-05-14T06:06:39.057Z,57.4
2018-05-14T06:07:29.052Z,57.4
2018-05-14T06:08:19.661Z,57.4
2018-05-14T06:09:09.761Z,57.3
2018-05-14T06:09:59.269Z,57.4
2018-05-14T06:10:49.383Z,57.3
2018-05-14T06:11:39.947Z,57.3
2018-05-14T06:12:29.436Z,57.3
2018-05-14T06:13:20.028Z,57.3
2018-05-14T06:14:09.853Z,57.3
2018-05-14T06:15:00.192Z,57.3
2018-05-14T06:15:49.706Z,57.3
2018-05-14T06:16:40.289Z,57.3
2018-05-14T06:17:29.500Z,57.3
2018-05-14T06:18:20.427Z,57.3
2018-05-14T06:19:10.208Z,57.3
2018-05-14T06:20:00.584Z,57.3
2018-05-14T06:20:50.058Z,57.3
2018-05-14T06:21:40.695Z,57.3
2018-05-14T06:22:30.823Z,57.2
2018-05-14T06:23:20.789Z,57.3
2018-05-14T06:24:10.600Z,57.2
2018-05-14T06:25:00.633Z,57.2
2018-05-14T06:25:50.709Z,57.2
2018-05-14T06:26:41.048Z,57.2
2018-05-14T06:27:30.829Z,57.2
2018-05-14T06:28:20.636Z,57.2
2018-05-14T06:29:10.966Z,57.2
2018-05-14T06:30:01.350Z,57.1
2018-05-14T06:30:51.130Z,57.1
2018-05-14T06:31:41.367Z,57.1
2018-05-14T06:32:30.863Z,57.1
2018-05-14T06:33:21.585Z,57.1
2018-05-14T06:34:11.378Z,57.1
2018-05-14T06:35:01.822Z,57.1
2018-05-14T06:35:52.101Z,57.1
2018-05-14T06:36:41.815Z,57.1
2018-05-14T06:37:31.611Z,57.1
2018-05-14T06:38:21.653Z,57.1
2018-05-14T06:39:10.912Z,57.1
2018-05-14T06:40:01.778Z,57.1
2018-05-14T06:40:51.858Z,57.1
2018-05-14T06:41:41.523Z,57
2018-05-14T06:42:31.678Z,57.1
2018-05-14T06:43:22.046Z,57
2018-05-14T06:44:12.377Z,57.1
2018-05-14T06:45:01.902Z,57
2018-05-14T06:45:51.526Z,57
2018-05-14T06:46:42.280Z,57
2018-05-14T06:47:32.342Z,57
2018-05-14T06:48:22.132Z,57
2018-05-14T06:49:12.798Z,57
2018-05-14T06:50:02.315Z,57
2018-05-14T06:50:52.310Z,56.9
2018-05-14T06:51:42.399Z,56.9
2018-05-14T06:52:32.431Z,56.9
2018-05-14T06:53:22.458Z,56.9
2018-05-14T06:54:12.995Z,56.9
2018-05-14T06:55:03.560Z,56.9
2018-05-14T06:55:52.989Z,56.9
2018-05-14T06:56:43.137Z,56.9
2018-05-14T06:57:32.524Z,56.9
2018-05-14T06:58:23.449Z,56.9
2018-05-14T06:59:13.511Z,56.9
2018-05-14T07:00:03.574Z,56.9
2018-05-14T07:00:53.343Z,56.9
2018-05-14T07:01:43.115Z,56.9
2018-05-14T07:02:33.204Z,56.8
2018-05-14T07:03:23.878Z,56.8
2018-05-14T07:04:13.877Z,56.8
2018-05-14T07:05:03.487Z,56.8
2018-05-14T07:05:54.039Z,56.8
2018-05-14T07:06:43.808Z,56.8
2018-05-14T07:07:34.299Z,56.8
2018-05-14T07:08:23.610Z,56.8
2018-05-14T07:09:13.682Z,56.8
2018-05-14T07:10:04.289Z,56.8
2018-05-14T07:10:54.094Z,56.8
2018-05-14T07:11:43.030Z,56.8
2018-05-14T07:12:34.250Z,56.8
2018-05-14T07:13:23.994Z,56.8
2018-05-14T07:14:13.779Z,56.8
2018-05-14T07:15:04.529Z,56.8
2018-05-14T07:15:54.852Z,56.8
2018-05-14T07:16:44.511Z,56.8
2018-05-14T07:17:34.909Z,56.8
2018-05-14T07:18:24.651Z,56.7
2018-05-14T07:19:15.143Z,56.7
2018-05-14T07:20:04.073Z,56.7
2018-05-14T07:20:54.576Z,56.7
2018-05-14T07:21:44.633Z,56.7
2018-05-14T07:22:34.961Z,56.7
2018-05-14T07:23:25.058Z,56.6
2018-05-14T07:24:15.086Z,56.6
2018-05-14T07:25:05.202Z,56.6
2018-05-14T07:25:55.223Z,56.6
2018-05-14T07:26:45.309Z,56.6
2018-05-14T07:27:34.797Z,56.5
2018-05-14T07:28:25.142Z,56.4
2018-05-14T07:29:15.763Z,56.4
2018-05-14T07:30:05.504Z,56.4
2018-05-14T07:30:55.600Z,56.4
2018-05-14T07:31:45.198Z,56.4
2018-05-14T07:32:35.511Z,56.4
2018-05-14T07:33:25.874Z,56.3
2018-05-14T07:34:15.828Z,56.3
2018-05-14T07:35:05.670Z,56.2
2018-05-14T07:35:55.976Z,56.2
2018-05-14T07:36:45.768Z,56.1
2018-05-14T07:37:36.393Z,56.1
2018-05-14T07:38:25.596Z,56.1
2018-05-14T07:39:16.510Z,56
2018-05-14T07:40:05.995Z,55.9
2018-05-14T07:40:56.076Z,55.9
2018-05-14T07:41:46.422Z,55.9
2018-05-14T07:42:36.755Z,55.9
2018-05-14T07:43:26.541Z,55.9
2018-05-14T07:44:16.615Z,55.9
2018-05-14T07:45:06.952Z,55.9
2018-05-14T07:45:57.013Z,55.8
2018-05-14T07:46:47.078Z,55.8
2018-05-14T07:47:36.856Z,55.8
2018-05-14T07:48:27.185Z,55.8
2018-05-14T07:49:17.223Z,55.8
2018-05-14T07:50:07.345Z,55.8
2018-05-14T07:50:57.091Z,55.8
2018-05-14T07:51:47.189Z,55.8
2018-05-14T07:52:37.255Z,55.8
2018-05-14T07:53:27.568Z,55.8
2018-05-14T07:54:17.623Z,55.8
2018-05-14T07:55:07.390Z,55.8
2018-05-14T07:55:57.194Z,55.8
2018-05-14T07:56:47.113Z,55.8
2018-05-14T07:57:37.091Z,55.8
2018-05-14T07:58:27.085Z,55.7
2018-05-14T07:59:17.446Z,55.7
2018-05-14T08:00:08.171Z,55.7
2018-05-14T08:00:56.806Z,55.7
2018-05-14T08:01:47.893Z,55.7
2018-05-14T08:02:37.789Z,55.7
2018-05-14T08:03:28.305Z,55.6
2018-05-14T08:04:18.374Z,55.6
2018-05-14T08:05:08.277Z,55.6
2018-05-14T08:05:58.217Z,55.6
2018-05-14T08:06:48.008Z,55.6
2018-05-14T08:07:38.341Z,55.6
2018-05-14T08:08:28.844Z,55.6
2018-05-14T08:09:18.116Z,55.6
2018-05-14T08:10:08.096Z,55.6
2018-05-14T08:10:58.646Z,55.6
2018-05-14T08:11:49.137Z,55.6
2018-05-14T08:12:38.463Z,55.6
2018-05-14T08:13:28.775Z,55.5
2018-05-14T08:14:19.110Z,55.6
2018-05-14T08:15:08.953Z,55.5
2018-05-14T08:15:58.690Z,55.5
2018-05-14T08:16:49.332Z,55.5
2018-05-14T08:17:39.118Z,55.4
2018-05-14T08:18:29.170Z,55.4
2018-05-14T08:19:19.213Z,55.4
2018-05-14T08:20:09.044Z,55.4
2018-05-14T08:20:58.812Z,55.4
2018-05-14T08:21:49.775Z,55.3
2018-05-14T08:22:38.656Z,55.3
2018-05-14T08:23:30.892Z,55.3
2018-05-14T08:24:19.855Z,55.3
2018-05-14T08:25:09.641Z,55.3
2018-05-14T08:25:59.249Z,55.3
2018-05-14T08:26:49.874Z,55.3
2018-05-14T08:27:40.129Z,55.3
2018-05-14T08:28:30.325Z,55.3
2018-05-14T08:29:20.095Z,55.3
2018-05-14T08:30:10.081Z,55.3
2018-05-14T08:31:00.631Z,55.3
2018-05-14T08:31:50.181Z,55.2
2018-05-14T08:32:39.964Z,55.3
2018-05-14T08:33:30.106Z,55.2
2018-05-14T08:34:20.517Z,55.2
2018-05-14T08:35:10.159Z,55.2
2018-05-14T08:36:00.527Z,55.2
2018-05-14T08:36:50.289Z,55.2
2018-05-14T08:37:40.635Z,55.2
2018-05-14T08:38:31.164Z,55.1
2018-05-14T08:39:20.960Z,55.1
2018-05-14T08:40:10.890Z,55.1
2018-05-14T08:41:00.924Z,55.1
2018-05-14T08:41:50.774Z,55.1
2018-05-14T08:42:40.413Z,55.1
2018-05-14T08:43:31.077Z,55.1
2018-05-14T08:44:21.080Z,55.1
2018-05-14T08:45:11.177Z,55.1
2018-05-14T08:46:01.602Z,55.1
2018-05-14T08:46:50.183Z,55.1
2018-05-14T08:47:41.069Z,55
2018-05-14T08:48:31.701Z,54.9
2018-05-14T08:49:21.203Z,54.9
2018-05-14T08:50:11.208Z,54.8
2018-05-14T08:51:01.051Z,54.8
2018-05-14T08:51:51.955Z,54.8
2018-05-14T08:52:41.481Z,54.7
2018-05-14T08:53:32.072Z,54.8
2018-05-14T08:54:22.894Z,54.8
2018-05-14T08:55:12.199Z,54.7
2018-05-14T08:56:01.690Z,54.7
2018-05-14T08:56:52.409Z,54.7
2018-05-14T08:57:43.045Z,54.7
2018-05-14T08:58:32.537Z,54.6
2018-05-14T08:59:22.211Z,54.6
2018-05-14T09:00:11.728Z,54.6
2018-05-14T09:01:02.722Z,54.6
2018-05-14T09:01:52.717Z,54.6
2018-05-14T09:02:42.187Z,54.6
2018-05-14T09:03:32.900Z,54.6
2018-05-14T09:04:22.306Z,54.6
2018-05-14T09:05:11.412Z,54.6
2018-05-14T09:06:02.752Z,54.6
2018-05-14T09:06:52.511Z,54.6
2018-05-14T09:07:42.868Z,54.5
2018-05-14T09:08:32.929Z,54.5
2018-05-14T09:09:23.273Z,54.5
2018-05-14T09:10:13.063Z,54.5
2018-05-14T09:11:03.418Z,54.5
2018-05-14T09:11:52.877Z,54.5
2018-05-14T09:12:43.211Z,54.4
2018-05-14T09:13:33.026Z,54.4
2018-05-14T09:14:23.643Z,54.4
2018-05-14T09:15:13.787Z,54.4
2018-05-14T09:16:03.485Z,54.4
2018-05-14T09:16:53.318Z,54.3
2018-05-14T09:17:43.341Z,54.4
2018-05-14T09:18:33.955Z,54.4
2018-05-14T09:19:24.251Z,54.4
2018-05-14T09:20:13.504Z,54.5
2018-05-14T09:21:04.162Z,54.6
2018-05-14T09:21:53.645Z,54.6
2018-05-14T09:22:44.248Z,54.6
2018-05-14T09:23:34.084Z,54.6
2018-05-14T09:24:24.383Z,54.6
2018-05-14T09:25:14.450Z,54.7
2018-05-14T09:26:04.529Z,54.8
2018-05-14T09:26:54.287Z,54.8
2018-05-14T09:27:44.654Z,54.9
2018-05-14T09:28:34.696Z,54.9
2018-05-14T09:29:24.214Z,54.9
2018-05-14T09:30:14.283Z,55
2018-05-14T09:31:04.885Z,55.1
2018-05-14T09:31:54.694Z,55.1
2018-05-14T09:32:44.491Z,55.2
2018-05-14T09:33:34.810Z,55.2
2018-05-14T09:34:25.158Z,55.2
2018-05-14T09:35:14.945Z,55.3
2018-05-14T09:36:04.996Z,55.3
2018-05-14T09:36:54.569Z,55.3
2018-05-14T09:37:45.125Z,55.3
2018-05-14T09:38:35.502Z,55.3
2018-05-14T09:39:25.033Z,55.3
2018-05-14T09:40:15.610Z,55.3
2018-05-14T09:41:05.420Z,55.3
2018-05-14T09:41:55.185Z,55.3
2018-05-14T09:42:45.784Z,55.3
2018-05-14T09:43:35.880Z,55.3
2018-05-14T09:44:25.755Z,55.3
2018-05-14T09:45:15.986Z,55.3
2018-05-14T09:46:05.787Z,55.3
2018-05-14T09:46:55.003Z,55.3
2018-05-14T09:47:46.189Z,55.3
2018-05-14T09:48:35.670Z,55.3
2018-05-14T09:49:26.007Z,55.3
2018-05-14T09:50:15.802Z,55.3
2018-05-14T09:51:06.157Z,55.3
2018-05-14T09:51:56.482Z,55.3
2018-05-14T09:52:46.252Z,55.3
2018-05-14T09:53:36.407Z,55.3
2018-05-14T09:54:26.704Z,55.3
2018-05-14T09:55:16.161Z,55.3
2018-05-14T09:56:05.682Z,55.3
2018-05-14T09:56:56.294Z,55.3
2018-05-14T09:57:46.054Z,55.3
2018-05-14T09:58:36.027Z,55.2
2018-05-14T09:59:26.425Z,55.3
2018-05-14T10:00:17.151Z,55.3
2018-05-14T10:01:06.151Z,55.3
2018-05-14T10:01:56.122Z,55.2
2018-05-14T10:02:47.018Z,55.3
2018-05-14T10:03:36.958Z,55.2
2018-05-14T10:04:27.174Z,55.2
2018-05-14T10:05:16.633Z,55.2
2018-05-14T10:06:07.006Z,55.2
2018-05-14T10:06:56.771Z,55.2
2018-05-14T10:07:47.724Z,55.2
2018-05-14T10:08:37.164Z,55.2
2018-05-14T10:09:27.378Z,55.2
2018-05-14T10:10:17.608Z,55.2
2018-05-14T10:11:06.780Z,55.2
2018-05-14T10:11:57.726Z,55.2
2018-05-14T10:12:47.850Z,55.2
2018-05-14T10:13:38.128Z,55.2
2018-05-14T10:14:28.181Z,55.2
2018-05-14T10:15:17.997Z,55.2
2018-05-14T10:16:08.628Z,55.1
2018-05-14T10:16:58.363Z,55.1
2018-05-14T10:17:48.520Z,55.1
2018-05-14T10:18:38.042Z,55.1
2018-05-14T10:19:28.543Z,55.1
2018-05-14T10:20:18.622Z,55.1
2018-05-14T10:21:08.386Z,55.1
2018-05-14T10:21:58.745Z,55.1
2018-05-14T10:22:48.592Z,55.1
2018-05-14T10:23:37.718Z,55.1
2018-05-14T10:24:28.165Z,55.1
2018-05-14T10:25:18.730Z,55.1
2018-05-14T10:26:08.796Z,55.1
2018-05-14T10:26:58.624Z,55.1
2018-05-14T10:27:48.391Z,55.1
2018-05-14T10:28:39.214Z,55.1
2018-05-14T10:29:29.422Z,55.1
2018-05-14T10:30:18.816Z,55.1
2018-05-14T10:31:09.117Z,55.1
2018-05-14T10:31:59.695Z,55.1
2018-05-14T10:32:49.254Z,55.1
2018-05-14T10:33:38.777Z,55.1
2018-05-14T10:34:29.687Z,55.1
2018-05-14T10:35:19.174Z,55.1
2018-05-14T10:36:09.344Z,55.1
2018-05-14T10:36:59.323Z,55.1
2018-05-14T10:37:49.651Z,55.1
2018-05-14T10:38:39.967Z,55
2018-05-14T10:39:30.094Z,55
2018-05-14T10:40:19.598Z,55
2018-05-14T10:41:09.613Z,55
2018-05-14T10:41:59.705Z,55
2018-05-14T10:42:50.332Z,55
2018-05-14T10:43:39.816Z,55
2018-05-14T10:44:30.448Z,55
2018-05-14T10:45:20.191Z,55
2018-05-14T10:46:09.979Z,55
2018-05-14T10:47:00.057Z,55
2018-05-14T10:47:50.716Z,55
2018-05-14T10:48:40.470Z,55
2018-05-14T10:49:30.829Z,54.9
2018-05-14T10:50:20.880Z,54.9
2018-05-14T10:51:10.407Z,54.9
2018-05-14T10:52:00.997Z,54.9
2018-05-14T10:52:51.435Z,54.9
2018-05-14T10:53:40.657Z,54.9
2018-05-14T10:54:30.615Z,54.9
2018-05-14T10:55:20.413Z,54.9
2018-05-14T10:56:10.773Z,54.9
2018-05-14T10:57:01.083Z,54.9
2018-05-14T10:57:50.885Z,54.9
2018-05-14T10:58:41.709Z,54.9
2018-05-14T10:59:31.563Z,54.9
2018-05-14T11:00:20.506Z,54.9
2018-05-14T11:01:11.143Z,54.9
2018-05-14T11:02:01.482Z,54.9
2018-05-14T11:02:51.582Z,54.9
2018-05-14T11:03:41.889Z,54.9
2018-05-14T11:04:31.083Z,54.9
2018-05-14T11:05:21.988Z,54.9
2018-05-14T11:06:11.505Z,54.9
2018-05-14T11:07:01.859Z,54.9
2018-05-14T11:07:51.612Z,54.9
2018-05-14T11:08:42.227Z,54.9
2018-05-14T11:09:32.338Z,54.9
2018-05-14T11:10:21.220Z,54.9
2018-05-14T11:11:12.183Z,54.8
2018-05-14T11:12:01.742Z,54.9
2018-05-14T11:12:52.538Z,54.8
2018-05-14T11:13:42.062Z,54.8
2018-05-14T11:14:32.397Z,54.8
2018-05-14T11:15:22.752Z,54.8
2018-05-14T11:16:12.276Z,54.8
2018-05-14T11:17:02.193Z,54.8
2018-05-14T11:17:53.026Z,54.8
2018-05-14T11:18:42.868Z,54.8
2018-05-14T11:19:32.521Z,54.8
2018-05-14T11:20:22.587Z,54.8
2018-05-14T11:21:12.064Z,54.8
2018-05-14T11:22:02.440Z,54.8
2018-05-14T11:22:53.069Z,54.8
2018-05-14T11:23:42.560Z,54.8